sensor_id;sensor_type;location;lat;lon;timestamp;temperature;humidity
11536;DHT22;5824;49.336;8.652;2023-02-15T00:01:17;3.50;1.00
11536;DHT22;5824;49.336;8.652;2023-02-15T00:03:42;3.50;1.00
11536;DHT22;5824;49.336;8.652;2023-02-15T00:06:08;3.50;1.00
11536;DHT22;5824;49.336;8.652;2023-02-15T00:08:33;3.40;1.00
11536;DHT22;5824;49.336;8.652;2023-02-15T00:11:10;3.30;1.00
11536;DHT22;5824;49.336;8.652;2023-02-15T00:13:36;3.40;1.00
11536;DHT22;5824;49.336;8.652;2023-02-15T00:16:07;3.40;1.00
11536;DHT22;5824;49.336;8.652;2023-02-15T00:18:33;3.40;1.00
11536;DHT22;5824;49.336;8.652;2023-02-15T00:21:04;3.40;1.00
11536;DHT22;5824;49.336;8.652;2023-02-15T00:23:29;3.90;1.00
11536;DHT22;5824;49.336;8.652;2023-02-15T00:26:09;3.40;1.00
11536;DHT22;5824;49.336;8.652;2023-02-15T00:28:34;3.40;1.00
11536;DHT22;5824;49.336;8.652;2023-02-15T00:31:05;3.80;1.00
11536;DHT22;5824;49.336;8.652;2023-02-15T00:33:31;3.30;1.00
11536;DHT22;5824;49.336;8.652;2023-02-15T00:35:57;3.40;1.00
11536;DHT22;5824;49.336;8.652;2023-02-15T00:38:23;3.30;1.00
11536;DHT22;5824;49.336;8.652;2023-02-15T00:40:53;3.70;1.00
11536;DHT22;5824;49.336;8.652;2023-02-15T00:43:19;3.30;1.00
11536;DHT22;5824;49.336;8.652;2023-02-15T00:45:45;3.30;1.00
11536;DHT22;5824;49.336;8.652;2023-02-15T00:48:11;3.30;1.00
11536;DHT22;5824;49.336;8.652;2023-02-15T00:50:36;3.30;1.00
11536;DHT22;5824;49.336;8.652;2023-02-15T00:53:02;3.30;1.00
11536;DHT22;5824;49.336;8.652;2023-02-15T00:55:27;3.20;1.00
11536;DHT22;5824;49.336;8.652;2023-02-15T00:57:53;3.60;1.00
11536;DHT22;5824;49.336;8.652;2023-02-15T01:00:18;3.70;1.00
11536;DHT22;5824;49.336;8.652;2023-02-15T01:02:44;3.20;1.00
11536;DHT22;5824;49.336;8.652;2023-02-15T01:05:09;4.10;1.00
11536;DHT22;5824;49.336;8.652;2023-02-15T01:07:35;3.80;1.00
11536;DHT22;5824;49.336;8.652;2023-02-15T01:10:01;3.20;1.00
11536;DHT22;5824;49.336;8.652;2023-02-15T01:12:26;3.20;1.00
11536;DHT22;5824;49.336;8.652;2023-02-15T01:14:52;3.50;1.00
11536;DHT22;5824;49.336;8.652;2023-02-15T01:17:17;3.20;1.00
11536;DHT22;5824;49.336;8.652;2023-02-15T01:19:43;3.30;1.00
11536;DHT22;5824;49.336;8.652;2023-02-15T01:22:08;3.20;1.00
11536;DHT22;5824;49.336;8.652;2023-02-15T01:24:34;3.20;4.40
11536;DHT22;5824;49.336;8.652;2023-02-15T01:26:59;3.30;3.70
11536;DHT22;5824;49.336;8.652;2023-02-15T01:29:25;3.70;2.50
11536;DHT22;5824;49.336;8.652;2023-02-15T01:31:50;3.90;3.10
11536;DHT22;5824;49.336;8.652;2023-02-15T01:34:16;3.50;1.00
11536;DHT22;5824;49.336;8.652;2023-02-15T01:39:07;3.40;1.00
11536;DHT22;5824;49.336;8.652;2023-02-15T01:41:33;3.90;1.00
11536;DHT22;5824;49.336;8.652;2023-02-15T01:44:00;3.40;1.00
11536;DHT22;5824;49.336;8.652;2023-02-15T01:46:40;3.30;1.00
11536;DHT22;5824;49.336;8.652;2023-02-15T01:49:16;3.40;3.90
11536;DHT22;5824;49.336;8.652;2023-02-15T01:51:44;3.30;3.20
11536;DHT22;5824;49.336;8.652;2023-02-15T01:54:31;3.70;4.20
11536;DHT22;5824;49.336;8.652;2023-02-15T01:57:05;3.30;2.30
11536;DHT22;5824;49.336;8.652;2023-02-15T01:59:33;3.30;1.10
11536;DHT22;5824;49.336;8.652;2023-02-15T02:02:01;3.30;5.30
11536;DHT22;5824;49.336;8.652;2023-02-15T02:04:38;3.70;4.20
11536;DHT22;5824;49.336;8.652;2023-02-15T02:07:06;3.10;7.10
11536;DHT22;5824;49.336;8.652;2023-02-15T02:09:32;3.30;5.90
11536;DHT22;5824;49.336;8.652;2023-02-15T02:14:24;3.20;6.80
11536;DHT22;5824;49.336;8.652;2023-02-15T02:23:06;3.30;1.90
11536;DHT22;5824;49.336;8.652;2023-02-15T02:31:35;3.30;5.00
11536;DHT22;5824;49.336;8.652;2023-02-15T02:34:30;3.30;5.00
11536;DHT22;5824;49.336;8.652;2023-02-15T02:37:13;3.40;5.20
11536;DHT22;5824;49.336;8.652;2023-02-15T02:45:20;3.50;5.90
11536;DHT22;5824;49.336;8.652;2023-02-15T02:47:54;3.30;5.00
11536;DHT22;5824;49.336;8.652;2023-02-15T02:50:24;3.30;5.70
11536;DHT22;5824;49.336;8.652;2023-02-15T02:52:53;3.30;2.40
11536;DHT22;5824;49.336;8.652;2023-02-15T02:55:31;3.60;5.80
11536;DHT22;5824;49.336;8.652;2023-02-15T02:58:06;3.20;5.00
11536;DHT22;5824;49.336;8.652;2023-02-15T03:00:40;3.40;4.50
11536;DHT22;5824;49.336;8.652;2023-02-15T03:03:14;3.40;3.20
11536;DHT22;5824;49.336;8.652;2023-02-15T03:05:45;3.50;2.70
11536;DHT22;5824;49.336;8.652;2023-02-15T03:08:14;3.50;1.00
11536;DHT22;5824;49.336;8.652;2023-02-15T03:10:48;3.50;1.00
11536;DHT22;5824;49.336;8.652;2023-02-15T03:13:14;3.60;1.00
11536;DHT22;5824;49.336;8.652;2023-02-15T03:15:41;3.50;1.00
11536;DHT22;5824;49.336;8.652;2023-02-15T03:18:30;3.50;1.00
11536;DHT22;5824;49.336;8.652;2023-02-15T03:20:58;3.40;2.80
11536;DHT22;5824;49.336;8.652;2023-02-15T03:23:28;3.30;2.20
11536;DHT22;5824;49.336;8.652;2023-02-15T03:26:01;3.30;7.10
11536;DHT22;5824;49.336;8.652;2023-02-15T03:28:45;3.50;7.50
11536;DHT22;5824;49.336;8.652;2023-02-15T03:31:13;3.40;6.70
11536;DHT22;5824;49.336;8.652;2023-02-15T03:33:44;3.60;5.20
11536;DHT22;5824;49.336;8.652;2023-02-15T03:36:28;3.40;5.00
11536;DHT22;5824;49.336;8.652;2023-02-15T03:39:12;3.50;3.70
11536;DHT22;5824;49.336;8.652;2023-02-15T03:41:48;3.90;3.40
11536;DHT22;5824;49.336;8.652;2023-02-15T03:44:20;3.40;2.80
11536;DHT22;5824;49.336;8.652;2023-02-15T03:46:52;3.40;1.40
11536;DHT22;5824;49.336;8.652;2023-02-15T03:49:42;3.40;4.60
11536;DHT22;5824;49.336;8.652;2023-02-15T03:52:11;3.40;7.60
11536;DHT22;5824;49.336;8.652;2023-02-15T03:54:37;3.50;6.50
11536;DHT22;5824;49.336;8.652;2023-02-15T04:03:14;5.20;6.00
11536;DHT22;5824;49.336;8.652;2023-02-15T04:05:45;3.30;6.80
11536;DHT22;5824;49.336;8.652;2023-02-15T04:08:11;3.10;9.80
11536;DHT22;5824;49.336;8.652;2023-02-15T04:10:37;3.40;11.40
11536;DHT22;5824;49.336;8.652;2023-02-15T04:13:22;3.50;9.60
11536;DHT22;5824;49.336;8.652;2023-02-15T04:15:48;3.50;6.00
11536;DHT22;5824;49.336;8.652;2023-02-15T04:18:48;3.50;4.40
11536;DHT22;5824;49.336;8.652;2023-02-15T04:21:33;3.40;7.60
11536;DHT22;5824;49.336;8.652;2023-02-15T04:24:18;3.30;11.10
11536;DHT22;5824;49.336;8.652;2023-02-15T04:27:03;3.40;11.30
11536;DHT22;5824;49.336;8.652;2023-02-15T04:29:29;3.50;11.90
11536;DHT22;5824;49.336;8.652;2023-02-15T04:31:57;3.40;11.40
11536;DHT22;5824;49.336;8.652;2023-02-15T04:34:23;3.40;11.50
11536;DHT22;5824;49.336;8.652;2023-02-15T04:36:49;3.40;13.90
11536;DHT22;5824;49.336;8.652;2023-02-15T04:39:16;3.50;11.70
11536;DHT22;5824;49.336;8.652;2023-02-15T04:41:42;3.40;13.60
11536;DHT22;5824;49.336;8.652;2023-02-15T04:44:07;3.50;13.30
11536;DHT22;5824;49.336;8.652;2023-02-15T04:46:33;3.40;12.20
11536;DHT22;5824;49.336;8.652;2023-02-15T04:48:58;3.50;14.50
11536;DHT22;5824;49.336;8.652;2023-02-15T04:51:24;3.60;14.10
11536;DHT22;5824;49.336;8.652;2023-02-15T04:53:50;3.50;11.10
11536;DHT22;5824;49.336;8.652;2023-02-15T04:56:18;3.60;11.50
11536;DHT22;5824;49.336;8.652;2023-02-15T04:58:43;3.60;8.80
11536;DHT22;5824;49.336;8.652;2023-02-15T05:01:09;3.60;9.00
11536;DHT22;5824;49.336;8.652;2023-02-15T05:03:35;3.60;12.20
11536;DHT22;5824;49.336;8.652;2023-02-15T05:06:01;3.60;9.60
11536;DHT22;5824;49.336;8.652;2023-02-15T05:08:26;3.60;8.90
11536;DHT22;5824;49.336;8.652;2023-02-15T05:10:52;3.60;10.00
11536;DHT22;5824;49.336;8.652;2023-02-15T05:13:17;3.60;10.20
11536;DHT22;5824;49.336;8.652;2023-02-15T05:15:47;3.60;10.60
11536;DHT22;5824;49.336;8.652;2023-02-15T05:18:14;3.70;9.10
11536;DHT22;5824;49.336;8.652;2023-02-15T05:20:39;3.70;10.90
11536;DHT22;5824;49.336;8.652;2023-02-15T05:23:05;3.70;8.30
11536;DHT22;5824;49.336;8.652;2023-02-15T05:25:30;3.70;8.70
11536;DHT22;5824;49.336;8.652;2023-02-15T05:28:14;3.60;7.90
11536;DHT22;5824;49.336;8.652;2023-02-15T05:30:50;3.50;11.90
11536;DHT22;5824;49.336;8.652;2023-02-15T05:33:16;3.50;14.30
11536;DHT22;5824;49.336;8.652;2023-02-15T05:35:42;3.50;13.20
11536;DHT22;5824;49.336;8.652;2023-02-15T05:38:07;5.10;13.00
11536;DHT22;5824;49.336;8.652;2023-02-15T05:40:33;3.50;14.00
11536;DHT22;5824;49.336;8.652;2023-02-15T05:42:58;3.50;13.40
11536;DHT22;5824;49.336;8.652;2023-02-15T05:45:24;3.50;15.10
11536;DHT22;5824;49.336;8.652;2023-02-15T05:47:50;3.50;13.50
11536;DHT22;5824;49.336;8.652;2023-02-15T05:50:15;3.50;14.00
11536;DHT22;5824;49.336;8.652;2023-02-15T05:52:41;3.50;14.80
11536;DHT22;5824;49.336;8.652;2023-02-15T05:55:07;3.60;14.00
11536;DHT22;5824;49.336;8.652;2023-02-15T05:57:34;3.70;13.10
11536;DHT22;5824;49.336;8.652;2023-02-15T06:00:01;3.60;11.00
11536;DHT22;5824;49.336;8.652;2023-02-15T06:02:32;3.70;10.90
11536;DHT22;5824;49.336;8.652;2023-02-15T06:04:58;3.70;10.10
11536;DHT22;5824;49.336;8.652;2023-02-15T06:07:24;3.70;9.70
11536;DHT22;5824;49.336;8.652;2023-02-15T06:09:49;3.60;9.80
11536;DHT22;5824;49.336;8.652;2023-02-15T06:12:15;3.60;8.10
11536;DHT22;5824;49.336;8.652;2023-02-15T06:14:40;3.50;10.70
11536;DHT22;5824;49.336;8.652;2023-02-15T06:17:06;3.30;10.60
11536;DHT22;5824;49.336;8.652;2023-02-15T06:19:31;3.30;12.40
11536;DHT22;5824;49.336;8.652;2023-02-15T06:21:57;3.30;15.60
11536;DHT22;5824;49.336;8.652;2023-02-15T06:24:23;3.40;18.30
11536;DHT22;5824;49.336;8.652;2023-02-15T06:26:48;3.40;16.30
11536;DHT22;5824;49.336;8.652;2023-02-15T06:29:14;3.50;13.50
11536;DHT22;5824;49.336;8.652;2023-02-15T06:31:39;3.40;10.90
11536;DHT22;5824;49.336;8.652;2023-02-15T06:34:05;3.30;11.90
11536;DHT22;5824;49.336;8.652;2023-02-15T06:36:31;3.20;15.40
11536;DHT22;5824;49.336;8.652;2023-02-15T06:38:57;3.20;14.80
11536;DHT22;5824;49.336;8.652;2023-02-15T06:41:23;3.20;15.80
11536;DHT22;5824;49.336;8.652;2023-02-15T06:43:49;3.20;17.40
11536;DHT22;5824;49.336;8.652;2023-02-15T06:46:15;3.20;16.80
11536;DHT22;5824;49.336;8.652;2023-02-15T06:48:40;3.20;13.90
11536;DHT22;5824;49.336;8.652;2023-02-15T06:51:06;3.10;14.90
11536;DHT22;5824;49.336;8.652;2023-02-15T06:53:31;3.10;18.20
11536;DHT22;5824;49.336;8.652;2023-02-15T06:56:05;3.10;17.20
11536;DHT22;5824;49.336;8.652;2023-02-15T06:58:37;3.10;15.10
11536;DHT22;5824;49.336;8.652;2023-02-15T07:01:03;3.10;17.10
11536;DHT22;5824;49.336;8.652;2023-02-15T07:03:30;4.40;13.70
11536;DHT22;5824;49.336;8.652;2023-02-15T07:05:56;2.90;13.40
11536;DHT22;5824;49.336;8.652;2023-02-15T07:08:23;2.80;13.80
11536;DHT22;5824;49.336;8.652;2023-02-15T07:10:49;2.80;18.10
11536;DHT22;5824;49.336;8.652;2023-02-15T07:13:15;2.80;20.00
11536;DHT22;5824;49.336;8.652;2023-02-15T07:15:40;2.70;18.60
11536;DHT22;5824;49.336;8.652;2023-02-15T07:18:06;2.70;21.10
11536;DHT22;5824;49.336;8.652;2023-02-15T07:20:31;2.80;21.50
11536;DHT22;5824;49.336;8.652;2023-02-15T07:22:59;3.00;17.30
11536;DHT22;5824;49.336;8.652;2023-02-15T07:25:25;2.90;12.00
11536;DHT22;5824;49.336;8.652;2023-02-15T07:27:59;2.80;14.70
11536;DHT22;5824;49.336;8.652;2023-02-15T07:30:26;2.90;17.00
11536;DHT22;5824;49.336;8.652;2023-02-15T07:32:56;2.70;11.50
11536;DHT22;5824;49.336;8.652;2023-02-15T07:35:46;2.90;15.20
11536;DHT22;5824;49.336;8.652;2023-02-15T07:38:12;2.70;14.20
11536;DHT22;5824;49.336;8.652;2023-02-15T07:40:38;2.70;15.00
11536;DHT22;5824;49.336;8.652;2023-02-15T07:43:03;2.70;17.60
11536;DHT22;5824;49.336;8.652;2023-02-15T07:45:29;3.10;14.20
11536;DHT22;5824;49.336;8.652;2023-02-15T07:47:54;2.70;9.10
11536;DHT22;5824;49.336;8.652;2023-02-15T07:50:20;2.70;12.20
11536;DHT22;5824;49.336;8.652;2023-02-15T07:52:45;2.70;15.60
11536;DHT22;5824;49.336;8.652;2023-02-15T07:55:11;2.80;16.60
11536;DHT22;5824;49.336;8.652;2023-02-15T07:57:41;2.70;12.20
11536;DHT22;5824;49.336;8.652;2023-02-15T08:00:08;2.70;13.00
11536;DHT22;5824;49.336;8.652;2023-02-15T08:02:33;2.80;14.30
11536;DHT22;5824;49.336;8.652;2023-02-15T08:05:02;2.80;13.20
11536;DHT22;5824;49.336;8.652;2023-02-15T08:07:27;2.70;9.70
11536;DHT22;5824;49.336;8.652;2023-02-15T08:09:53;2.70;10.90
11536;DHT22;5824;49.336;8.652;2023-02-15T08:12:19;2.70;14.00
11536;DHT22;5824;49.336;8.652;2023-02-15T08:14:44;3.00;12.70
11536;DHT22;5824;49.336;8.652;2023-02-15T08:17:10;3.00;11.30
11536;DHT22;5824;49.336;8.652;2023-02-15T08:19:36;2.60;11.60
11536;DHT22;5824;49.336;8.652;2023-02-15T08:22:04;2.70;13.90
11536;DHT22;5824;49.336;8.652;2023-02-15T08:24:32;3.10;9.20
11536;DHT22;5824;49.336;8.652;2023-02-15T08:26:58;2.70;9.10
11536;DHT22;5824;49.336;8.652;2023-02-15T08:29:26;2.70;10.80
11536;DHT22;5824;49.336;8.652;2023-02-15T08:31:57;2.80;10.40
11536;DHT22;5824;49.336;8.652;2023-02-15T08:34:24;2.70;4.20
11536;DHT22;5824;49.336;8.652;2023-02-15T08:36:50;2.80;7.30
11536;DHT22;5824;49.336;8.652;2023-02-15T08:39:16;2.70;9.00
11536;DHT22;5824;49.336;8.652;2023-02-15T08:41:44;2.80;7.10
11536;DHT22;5824;49.336;8.652;2023-02-15T08:44:10;2.80;4.30
11536;DHT22;5824;49.336;8.652;2023-02-15T08:46:40;2.90;6.70
11536;DHT22;5824;49.336;8.652;2023-02-15T08:49:07;3.20;4.70
11536;DHT22;5824;49.336;8.652;2023-02-15T08:51:34;2.90;3.50
11536;DHT22;5824;49.336;8.652;2023-02-15T08:54:03;2.90;3.70
11536;DHT22;5824;49.336;8.652;2023-02-15T08:56:36;2.90;2.10
11536;DHT22;5824;49.336;8.652;2023-02-15T08:59:02;2.90;2.20
11536;DHT22;5824;49.336;8.652;2023-02-15T09:01:30;2.80;3.50
11536;DHT22;5824;49.336;8.652;2023-02-15T09:03:58;2.80;2.60
11536;DHT22;5824;49.336;8.652;2023-02-15T09:06:25;3.20;2.90
11536;DHT22;5824;49.336;8.652;2023-02-15T09:08:51;3.30;5.00
11536;DHT22;5824;49.336;8.652;2023-02-15T09:11:19;3.00;1.00
11536;DHT22;5824;49.336;8.652;2023-02-15T09:14:00;3.00;1.00
11536;DHT22;5824;49.336;8.652;2023-02-15T09:16:28;2.90;2.10
11536;DHT22;5824;49.336;8.652;2023-02-15T09:18:54;2.90;1.00
11536;DHT22;5824;49.336;8.652;2023-02-15T09:21:24;3.00;1.00
11536;DHT22;5824;49.336;8.652;2023-02-15T09:23:52;2.90;1.00
11536;DHT22;5824;49.336;8.652;2023-02-15T09:26:22;2.90;1.00
11536;DHT22;5824;49.336;8.652;2023-02-15T09:28:51;2.80;3.40
11536;DHT22;5824;49.336;8.652;2023-02-15T09:31:20;2.80;2.90
11536;DHT22;5824;49.336;8.652;2023-02-15T09:33:47;2.90;1.00
11536;DHT22;5824;49.336;8.652;2023-02-15T09:36:29;2.90;1.00
11536;DHT22;5824;49.336;8.652;2023-02-15T09:39:18;3.00;1.00
11536;DHT22;5824;49.336;8.652;2023-02-15T09:44:34;3.00;1.00
11536;DHT22;5824;49.336;8.652;2023-02-15T09:49:50;2.80;1.00
11536;DHT22;5824;49.336;8.652;2023-02-15T10:02:37;3.00;1.00
11536;DHT22;5824;49.336;8.652;2023-02-15T10:18:38;3.40;1.00
11536;DHT22;5824;49.336;8.652;2023-02-15T10:21:23;3.20;1.00
11536;DHT22;5824;49.336;8.652;2023-02-15T10:29:14;3.40;1.00
11536;DHT22;5824;49.336;8.652;2023-02-15T10:31:51;3.50;1.00
11536;DHT22;5824;49.336;8.652;2023-02-15T10:34:43;3.60;1.00
11536;DHT22;5824;49.336;8.652;2023-02-15T10:51:02;3.70;1.00
11536;DHT22;5824;49.336;8.652;2023-02-15T10:54:02;3.70;1.00
11536;DHT22;5824;49.336;8.652;2023-02-15T10:56:38;3.80;1.00
11536;DHT22;5824;49.336;8.652;2023-02-15T11:02:04;4.10;1.00
11536;DHT22;5824;49.336;8.652;2023-02-15T11:04:48;4.30;1.00
11536;DHT22;5824;49.336;8.652;2023-02-15T11:07:24;4.70;1.00
11536;DHT22;5824;49.336;8.652;2023-02-15T11:10:20;5.40;1.00
11536;DHT22;5824;49.336;8.652;2023-02-15T11:12:49;4.90;1.00
11536;DHT22;5824;49.336;8.652;2023-02-15T11:15:53;5.00;1.00
11536;DHT22;5824;49.336;8.652;2023-02-15T11:23:25;6.20;1.00
11536;DHT22;5824;49.336;8.652;2023-02-15T11:26:00;4.70;1.00
11536;DHT22;5824;49.336;8.652;2023-02-15T11:28:37;4.70;1.00
11536;DHT22;5824;49.336;8.652;2023-02-15T11:31:21;4.90;1.00
11536;DHT22;5824;49.336;8.652;2023-02-15T11:33:54;5.00;1.00
11536;DHT22;5824;49.336;8.652;2023-02-15T11:36:41;5.10;1.00
11536;DHT22;5824;49.336;8.652;2023-02-15T11:39:14;5.30;1.00
11536;DHT22;5824;49.336;8.652;2023-02-15T11:41:47;5.40;1.00
11536;DHT22;5824;49.336;8.652;2023-02-15T11:44:36;5.50;1.00
11536;DHT22;5824;49.336;8.652;2023-02-15T11:47:02;5.20;1.00
11536;DHT22;5824;49.336;8.652;2023-02-15T11:49:32;5.20;1.00
11536;DHT22;5824;49.336;8.652;2023-02-15T11:51:59;5.20;1.00
11536;DHT22;5824;49.336;8.652;2023-02-15T11:54:30;5.20;1.00
11536;DHT22;5824;49.336;8.652;2023-02-15T11:59:48;5.10;1.00
11536;DHT22;5824;49.336;8.652;2023-02-15T12:02:21;5.10;1.00
11536;DHT22;5824;49.336;8.652;2023-02-15T12:04:58;5.20;1.00
11536;DHT22;5824;49.336;8.652;2023-02-15T12:07:37;5.20;1.00
11536;DHT22;5824;49.336;8.652;2023-02-15T12:10:26;5.40;1.00
11536;DHT22;5824;49.336;8.652;2023-02-15T12:13:16;5.50;1.00
11536;DHT22;5824;49.336;8.652;2023-02-15T12:15:45;5.70;1.00
11536;DHT22;5824;49.336;8.652;2023-02-15T12:21:03;5.50;1.00
11536;DHT22;5824;49.336;8.652;2023-02-15T12:23:31;5.50;1.00
11536;DHT22;5824;49.336;8.652;2023-02-15T12:25:58;5.50;1.00
11536;DHT22;5824;49.336;8.652;2023-02-15T12:31:02;5.50;1.00
11536;DHT22;5824;49.336;8.652;2023-02-15T12:33:35;5.70;1.00
11536;DHT22;5824;49.336;8.652;2023-02-15T12:36:12;6.00;1.00
11536;DHT22;5824;49.336;8.652;2023-02-15T12:38:40;6.10;1.00
11536;DHT22;5824;49.336;8.652;2023-02-15T12:41:24;6.50;1.00
11536;DHT22;5824;49.336;8.652;2023-02-15T12:44:14;7.30;1.00
11536;DHT22;5824;49.336;8.652;2023-02-15T12:46:41;8.90;1.00
11536;DHT22;5824;49.336;8.652;2023-02-15T12:51:52;10.00;1.00
11536;DHT22;5824;49.336;8.652;2023-02-15T12:54:32;10.10;1.00
11536;DHT22;5824;49.336;8.652;2023-02-15T12:56:59;10.60;1.00
11536;DHT22;5824;49.336;8.652;2023-02-15T12:59:24;10.60;1.00
11536;DHT22;5824;49.336;8.652;2023-02-15T13:01:52;12.30;1.00
11536;DHT22;5824;49.336;8.652;2023-02-15T13:06:50;14.70;1.00
11536;DHT22;5824;49.336;8.652;2023-02-15T13:12:25;14.60;1.00
11536;DHT22;5824;49.336;8.652;2023-02-15T13:14:57;13.60;1.00
11536;DHT22;5824;49.336;8.652;2023-02-15T13:17:30;12.70;1.00
11536;DHT22;5824;49.336;8.652;2023-02-15T13:20:17;12.40;1.00
11536;DHT22;5824;49.336;8.652;2023-02-15T13:22:46;12.90;1.00
11536;DHT22;5824;49.336;8.652;2023-02-15T13:25:21;13.80;1.00
11536;DHT22;5824;49.336;8.652;2023-02-15T13:28:12;14.90;1.00
11536;DHT22;5824;49.336;8.652;2023-02-15T13:30:40;15.90;1.00
11536;DHT22;5824;49.336;8.652;2023-02-15T13:35:50;15.20;1.00
11536;DHT22;5824;49.336;8.652;2023-02-15T13:40:58;13.20;1.00
11536;DHT22;5824;49.336;8.652;2023-02-15T13:49:31;11.50;1.00
11536;DHT22;5824;49.336;8.652;2023-02-15T13:52:06;11.00;1.00
11536;DHT22;5824;49.336;8.652;2023-02-15T14:02:36;10.00;1.00
11536;DHT22;5824;49.336;8.652;2023-02-15T14:05:25;9.70;1.00
11536;DHT22;5824;49.336;8.652;2023-02-15T14:07:58;9.30;1.00
11536;DHT22;5824;49.336;8.652;2023-02-15T14:10:38;9.20;1.00
11536;DHT22;5824;49.336;8.652;2023-02-15T14:13:19;9.10;1.00
11536;DHT22;5824;49.336;8.652;2023-02-15T14:15:58;9.10;1.00
11536;DHT22;5824;49.336;8.652;2023-02-15T14:21:36;9.20;1.00
11536;DHT22;5824;49.336;8.652;2023-02-15T14:24:33;9.00;1.00
11536;DHT22;5824;49.336;8.652;2023-02-15T14:27:22;9.00;1.00
11536;DHT22;5824;49.336;8.652;2023-02-15T14:32:45;9.10;1.00
11536;DHT22;5824;49.336;8.652;2023-02-15T14:35:15;9.00;1.00
11536;DHT22;5824;49.336;8.652;2023-02-15T14:49:23;8.90;1.00
11536;DHT22;5824;49.336;8.652;2023-02-15T14:59:57;8.70;1.00
11536;DHT22;5824;49.336;8.652;2023-02-15T15:02:47;8.60;1.00
11536;DHT22;5824;49.336;8.652;2023-02-15T15:05:34;8.40;1.00
11536;DHT22;5824;49.336;8.652;2023-02-15T15:08:02;8.20;1.00
11536;DHT22;5824;49.336;8.652;2023-02-15T15:10:40;7.90;1.00
11536;DHT22;5824;49.336;8.652;2023-02-15T15:16:23;7.90;1.00
11536;DHT22;5824;49.336;8.652;2023-02-15T15:21:09;7.80;1.00
11536;DHT22;5824;49.336;8.652;2023-02-15T15:23:39;7.80;1.00
11536;DHT22;5824;49.336;8.652;2023-02-15T15:26:28;7.80;1.00
11536;DHT22;5824;49.336;8.652;2023-02-15T15:28:58;7.70;1.00
11536;DHT22;5824;49.336;8.652;2023-02-15T15:50:59;7.20;1.00
11536;DHT22;5824;49.336;8.652;2023-02-15T15:53:27;7.20;1.00
11536;DHT22;5824;49.336;8.652;2023-02-15T15:56:06;7.10;1.00
11536;DHT22;5824;49.336;8.652;2023-02-15T15:58:35;7.00;1.00
11536;DHT22;5824;49.336;8.652;2023-02-15T16:03:28;6.70;1.00
11536;DHT22;5824;49.336;8.652;2023-02-15T16:05:55;6.60;1.00
11536;DHT22;5824;49.336;8.652;2023-02-15T16:08:32;6.50;1.00
11536;DHT22;5824;49.336;8.652;2023-02-15T16:10:58;7.30;1.00
11536;DHT22;5824;49.336;8.652;2023-02-15T16:13:25;6.30;1.00
11536;DHT22;5824;49.336;8.652;2023-02-15T16:15:54;6.20;1.00
11536;DHT22;5824;49.336;8.652;2023-02-15T16:18:23;6.10;1.00
11536;DHT22;5824;49.336;8.652;2023-02-15T16:21:00;6.00;1.00
11536;DHT22;5824;49.336;8.652;2023-02-15T16:28:52;5.70;1.00
11536;DHT22;5824;49.336;8.652;2023-02-15T16:31:19;5.50;1.00
11536;DHT22;5824;49.336;8.652;2023-02-15T16:33:45;5.50;1.00
11536;DHT22;5824;49.336;8.652;2023-02-15T16:36:13;5.40;1.00
11536;DHT22;5824;49.336;8.652;2023-02-15T16:39:08;5.30;1.00
11536;DHT22;5824;49.336;8.652;2023-02-15T16:41:34;5.20;1.00
11536;DHT22;5824;49.336;8.652;2023-02-15T16:44:07;5.20;1.00
11536;DHT22;5824;49.336;8.652;2023-02-15T16:46:36;5.10;1.00
11536;DHT22;5824;49.336;8.652;2023-02-15T16:49:07;5.00;1.00
11536;DHT22;5824;49.336;8.652;2023-02-15T16:51:41;5.00;1.00
11536;DHT22;5824;49.336;8.652;2023-02-15T16:54:15;4.90;1.00
11536;DHT22;5824;49.336;8.652;2023-02-15T16:56:43;4.80;1.00
11536;DHT22;5824;49.336;8.652;2023-02-15T16:59:38;4.70;1.00
11536;DHT22;5824;49.336;8.652;2023-02-15T17:02:18;4.70;1.00
11536;DHT22;5824;49.336;8.652;2023-02-15T17:04:44;4.70;1.00
11536;DHT22;5824;49.336;8.652;2023-02-15T17:07:18;4.60;1.00
11536;DHT22;5824;49.336;8.652;2023-02-15T17:09:52;4.50;1.00
11536;DHT22;5824;49.336;8.652;2023-02-15T17:15:25;4.40;1.00
11536;DHT22;5824;49.336;8.652;2023-02-15T17:17:51;4.20;1.00
11536;DHT22;5824;49.336;8.652;2023-02-15T17:20:18;4.20;1.00
11536;DHT22;5824;49.336;8.652;2023-02-15T17:22:44;4.40;1.00
11536;DHT22;5824;49.336;8.652;2023-02-15T17:25:19;4.10;1.00
11536;DHT22;5824;49.336;8.652;2023-02-15T17:27:51;4.00;1.00
11536;DHT22;5824;49.336;8.652;2023-02-15T17:30:37;4.00;1.00
11536;DHT22;5824;49.336;8.652;2023-02-15T17:33:04;3.90;1.00
11536;DHT22;5824;49.336;8.652;2023-02-15T17:35:43;3.90;1.00
11536;DHT22;5824;49.336;8.652;2023-02-15T17:38:19;3.80;1.00
11536;DHT22;5824;49.336;8.652;2023-02-15T17:40:45;3.80;1.00
11536;DHT22;5824;49.336;8.652;2023-02-15T17:43:11;3.70;1.00
11536;DHT22;5824;49.336;8.652;2023-02-15T17:45:57;3.60;1.00
11536;DHT22;5824;49.336;8.652;2023-02-15T17:48:34;4.00;1.00
11536;DHT22;5824;49.336;8.652;2023-02-15T17:51:02;3.50;1.00
11536;DHT22;5824;49.336;8.652;2023-02-15T17:53:28;3.40;1.00
11536;DHT22;5824;49.336;8.652;2023-02-15T17:55:54;3.40;1.00
11536;DHT22;5824;49.336;8.652;2023-02-15T17:58:20;3.30;1.00
11536;DHT22;5824;49.336;8.652;2023-02-15T18:00:49;3.30;1.00
11536;DHT22;5824;49.336;8.652;2023-02-15T18:03:41;3.20;1.00
11536;DHT22;5824;49.336;8.652;2023-02-15T18:06:26;3.20;1.00
11536;DHT22;5824;49.336;8.652;2023-02-15T18:09:13;3.10;1.00
11536;DHT22;5824;49.336;8.652;2023-02-15T18:11:57;3.00;1.00
11536;DHT22;5824;49.336;8.652;2023-02-15T18:14:23;2.90;1.00
11536;DHT22;5824;49.336;8.652;2023-02-15T18:16:48;2.90;1.00
11536;DHT22;5824;49.336;8.652;2023-02-15T18:19:23;2.80;1.00
11536;DHT22;5824;49.336;8.652;2023-02-15T18:21:50;2.80;1.00
11536;DHT22;5824;49.336;8.652;2023-02-15T18:24:26;2.70;1.00
11536;DHT22;5824;49.336;8.652;2023-02-15T18:26:53;0.40;1.00
11536;DHT22;5824;49.336;8.652;2023-02-15T18:29:19;2.60;1.00
11536;DHT22;5824;49.336;8.652;2023-02-15T18:31:50;2.50;1.00
11536;DHT22;5824;49.336;8.652;2023-02-15T18:34:32;4.10;1.00
11536;DHT22;5824;49.336;8.652;2023-02-15T18:37:00;2.60;1.00
11536;DHT22;5824;49.336;8.652;2023-02-15T18:41:56;2.60;1.00
11536;DHT22;5824;49.336;8.652;2023-02-15T18:44:22;2.50;1.00
11536;DHT22;5824;49.336;8.652;2023-02-15T18:46:47;2.60;1.00
11536;DHT22;5824;49.336;8.652;2023-02-15T18:49:13;2.30;1.00
11536;DHT22;5824;49.336;8.652;2023-02-15T18:51:38;2.40;1.00
11536;DHT22;5824;49.336;8.652;2023-02-15T18:54:10;2.30;1.00
11536;DHT22;5824;49.336;8.652;2023-02-15T18:56:39;2.70;1.00
11536;DHT22;5824;49.336;8.652;2023-02-15T18:59:05;2.30;1.00
11536;DHT22;5824;49.336;8.652;2023-02-15T19:01:30;2.40;1.00
11536;DHT22;5824;49.336;8.652;2023-02-15T19:03:56;2.40;1.00
11536;DHT22;5824;49.336;8.652;2023-02-15T19:06:22;2.20;1.00
11536;DHT22;5824;49.336;8.652;2023-02-15T19:08:50;2.10;1.00
11536;DHT22;5824;49.336;8.652;2023-02-15T19:11:23;2.10;1.00
11536;DHT22;5824;49.336;8.652;2023-02-15T19:13:50;2.10;1.00
11536;DHT22;5824;49.336;8.652;2023-02-15T19:16:31;2.10;1.00
11536;DHT22;5824;49.336;8.652;2023-02-15T19:18:57;2.10;1.00
11536;DHT22;5824;49.336;8.652;2023-02-15T19:21:24;2.10;1.00
11536;DHT22;5824;49.336;8.652;2023-02-15T19:23:56;2.40;1.00
11536;DHT22;5824;49.336;8.652;2023-02-15T19:26:23;2.00;1.00
11536;DHT22;5824;49.336;8.652;2023-02-15T19:28:49;2.00;1.00
11536;DHT22;5824;49.336;8.652;2023-02-15T19:31:15;2.30;1.00
11536;DHT22;5824;49.336;8.652;2023-02-15T19:33:42;2.00;1.00
11536;DHT22;5824;49.336;8.652;2023-02-15T19:36:14;1.90;1.00
11536;DHT22;5824;49.336;8.652;2023-02-15T19:38:42;1.90;1.00
11536;DHT22;5824;49.336;8.652;2023-02-15T19:41:18;1.80;1.00
11536;DHT22;5824;49.336;8.652;2023-02-15T19:43:49;1.80;1.00